createdAt,value
2023-04-09T00:00:34.221Z,9.00
2023-04-09T00:05:43.498Z,8.90
2023-04-09T00:10:45.743Z,8.90
2023-04-09T00:15:48.288Z,9.00
2023-04-09T00:20:50.600Z,9.00
2023-04-09T00:25:52.843Z,9.00
2023-04-09T00:30:55.052Z,9.00
2023-04-09T00:35:57.443Z,9.10
2023-04-09T00:40:59.835Z,9.10
2023-04-09T00:46:02.183Z,9.00
2023-04-09T00:51:04.482Z,8.90
2023-04-09T00:56:08.807Z,9.00
2023-04-09T01:01:11.078Z,9.00
2023-04-09T01:06:29.923Z,8.90
2023-04-09T01:12:01.609Z,8.90
2023-04-09T01:17:08.502Z,8.80
2023-04-09T01:22:40.467Z,8.60
2023-04-09T01:27:55.614Z,8.50
2023-04-09T01:32:58.988Z,8.60
2023-04-09T01:38:04.003Z,8.60
2023-04-09T01:43:08.094Z,8.60
2023-04-09T01:48:11.062Z,8.60
2023-04-09T01:53:13.893Z,8.60
2023-04-09T01:58:16.178Z,8.70
2023-04-09T02:03:26.597Z,8.70
2023-04-09T02:08:31.240Z,8.80
2023-04-09T02:13:35.128Z,8.70
2023-04-09T02:18:37.804Z,8.60
2023-04-09T02:23:40.022Z,8.60
2023-04-09T02:28:42.192Z,8.60
2023-04-09T02:33:44.395Z,8.50
2023-04-09T02:38:46.644Z,8.40
2023-04-09T02:43:48.844Z,8.40
2023-04-09T02:48:51.334Z,8.30
2023-04-09T02:53:54.210Z,8.40
2023-04-09T02:58:56.560Z,8.40
2023-04-09T03:03:58.942Z,8.30
2023-04-09T03:09:01.378Z,8.30
2023-04-09T03:14:03.597Z,8.30
2023-04-09T03:19:05.756Z,8.30
2023-04-09T03:24:08.593Z,8.30
2023-04-09T03:29:11.114Z,8.30
2023-04-09T03:34:14.128Z,8.20
2023-04-09T03:39:16.630Z,8.20
2023-04-09T03:44:21.049Z,8.10
2023-04-09T03:49:45.496Z,8.10
2023-04-09T03:54:55.023Z,8.00
2023-04-09T04:00:00.875Z,8.00
2023-04-09T04:05:12.368Z,8.00
2023-04-09T04:10:21.107Z,8.00
2023-04-09T04:15:23.508Z,8.10
2023-04-09T04:20:32.878Z,8.10
2023-04-09T04:25:43.708Z,7.90
2023-04-09T04:30:50.105Z,7.90
2023-04-09T04:35:52.647Z,8.00
2023-04-09T04:41:26.980Z,7.90
2023-04-09T04:46:41.748Z,7.90
2023-04-09T04:51:44.012Z,8.00
2023-04-09T04:56:49.117Z,7.90
2023-04-09T05:02:11.909Z,7.90
2023-04-09T05:07:37.317Z,7.90
2023-04-09T05:12:41.065Z,7.90
2023-04-09T05:17:45.161Z,7.90
2023-04-09T05:22:49.372Z,8.00
2023-04-09T05:27:52.035Z,8.10
2023-04-09T05:32:54.322Z,8.10
2023-04-09T05:37:59.847Z,8.30
2023-04-09T05:43:02.262Z,8.40
2023-04-09T05:48:13.499Z,8.50
2023-04-09T05:53:15.706Z,8.50
2023-04-09T05:58:21.795Z,8.40
2023-04-09T06:03:24.736Z,8.50
2023-04-09T06:08:27.047Z,8.50
2023-04-09T06:13:29.413Z,8.50
2023-04-09T06:18:32.030Z,8.50
2023-04-09T06:23:37.190Z,8.60
2023-04-09T06:28:39.492Z,8.60
2023-04-09T06:33:41.805Z,8.60
2023-04-09T06:38:44.061Z,8.70
2023-04-09T06:43:46.212Z,8.80
2023-04-09T06:48:48.502Z,8.90
2023-04-09T06:53:51.065Z,9.00
2023-04-09T06:58:53.393Z,8.90
2023-04-09T07:03:55.727Z,9.20
2023-04-09T07:08:58.144Z,9.60
2023-04-09T07:14:00.479Z,9.70
2023-04-09T07:19:02.626Z,9.70
2023-04-09T07:24:04.898Z,9.50
2023-04-09T07:29:08.258Z,9.90
2023-04-09T07:34:10.808Z,10.00
2023-04-09T07:39:13.032Z,10.10
2023-04-09T07:44:15.319Z,10.10
2023-04-09T07:49:17.501Z,9.90
2023-04-09T07:54:21.342Z,10.20
2023-04-09T07:59:23.771Z,10.40
2023-04-09T08:04:26.120Z,10.70
2023-04-09T08:09:28.470Z,10.40
2023-04-09T08:14:30.755Z,10.40
2023-04-09T08:19:32.975Z,10.30
2023-04-09T08:24:38.939Z,10.50
2023-04-09T08:29:43.044Z,11.00
2023-04-09T08:34:45.570Z,11.20
2023-04-09T08:39:47.816Z,11.10
2023-04-09T08:44:50.902Z,11.20
2023-04-09T08:49:53.180Z,11.20
2023-04-09T08:54:55.324Z,11.30
2023-04-09T08:59:59.024Z,11.80
2023-04-09T09:05:01.765Z,12.90
2023-04-09T09:10:04.698Z,14.80
2023-04-09T09:15:29.139Z,15.00
2023-04-09T09:20:31.561Z,14.70
2023-04-09T09:25:38.986Z,14.90
2023-04-09T09:30:41.925Z,15.60
2023-04-09T09:35:51.841Z,18.00
2023-04-09T09:40:54.045Z,19.20
2023-04-09T09:45:57.527Z,20.50
2023-04-09T09:51:02.242Z,19.80
2023-04-09T09:56:06.932Z,19.70
2023-04-09T10:01:12.608Z,20.00
2023-04-09T10:06:15.297Z,21.20
2023-04-09T10:11:20.133Z,19.60
2023-04-09T10:16:25.296Z,18.80
2023-04-09T10:21:27.779Z,18.70
2023-04-09T10:26:32.766Z,20.40
2023-04-09T10:31:53.503Z,21.20
2023-04-09T10:37:03.108Z,20.00
2023-04-09T10:42:11.778Z,23.80
2023-04-09T10:47:33.192Z,26.20
2023-04-09T10:52:35.408Z,25.40
2023-04-09T10:57:37.718Z,24.40
2023-04-09T11:02:40.321Z,27.10
2023-04-09T11:07:52.501Z,26.00
2023-04-09T11:12:55.016Z,27.10
2023-04-09T11:17:57.874Z,28.90
2023-04-09T11:23:03.425Z,29.60
2023-04-09T11:28:08.261Z,30.00
2023-04-09T11:33:10.818Z,29.10
2023-04-09T11:38:13.152Z,23.10
2023-04-09T11:43:21.179Z,25.40
2023-04-09T11:48:25.072Z,26.50
2023-04-09T11:53:31.558Z,26.80
2023-04-09T11:58:33.771Z,25.50
2023-04-09T12:03:37.682Z,26.40
2023-04-09T12:08:40.458Z,25.10
2023-04-09T12:13:45.859Z,22.80
2023-04-09T12:18:48.364Z,22.40
2023-04-09T12:23:50.624Z,23.90
2023-04-09T12:28:52.942Z,23.30
2023-04-09T12:33:55.666Z,20.70
2023-04-09T12:38:57.992Z,21.70
2023-04-09T12:44:00.317Z,21.10
2023-04-09T12:49:06.330Z,22.30
2023-04-09T12:54:08.607Z,23.00
2023-04-09T12:59:10.858Z,21.00
2023-04-09T13:04:13.276Z,19.60
2023-04-09T13:09:15.499Z,20.30
2023-04-09T13:14:17.770Z,22.20
2023-04-09T13:19:20.242Z,23.80
2023-04-09T13:24:22.466Z,22.60
2023-04-09T13:29:26.461Z,22.60
2023-04-09T13:34:28.867Z,21.90
2023-04-09T13:39:31.233Z,20.60
2023-04-09T13:44:33.620Z,20.10
2023-04-09T13:49:35.839Z,20.50
2023-04-09T13:54:38.377Z,20.30
2023-04-09T13:59:42.611Z,20.20
2023-04-09T14:04:44.906Z,20.90
2023-04-09T14:09:47.529Z,21.30
2023-04-09T14:14:50.189Z,21.70
2023-04-09T14:19:52.382Z,22.80
2023-04-09T14:24:54.574Z,21.20
2023-04-09T14:29:56.957Z,20.30
2023-04-09T14:34:59.559Z,20.40
2023-04-09T14:40:01.959Z,20.60
2023-04-09T14:45:04.571Z,20.00
2023-04-09T14:50:07.127Z,20.40
2023-04-09T14:55:12.688Z,21.60
2023-04-09T15:00:15.650Z,21.30
2023-04-09T15:05:17.866Z,22.20
2023-04-09T15:10:20.252Z,22.00
2023-04-09T15:15:22.512Z,24.30
2023-04-09T15:20:24.771Z,24.70
2023-04-09T15:25:26.950Z,25.60
2023-04-09T15:30:29.393Z,25.80
2023-04-09T15:35:31.899Z,25.80
2023-04-09T15:40:34.165Z,24.70
2023-04-09T15:45:36.346Z,23.80
2023-04-09T15:50:39.856Z,25.80
2023-04-09T15:55:42.404Z,27.10
2023-04-09T16:00:44.576Z,26.00
2023-04-09T16:05:48.022Z,26.00
2023-04-09T16:10:50.254Z,24.00
2023-04-09T16:15:52.553Z,24.00
2023-04-09T16:20:58.361Z,23.30
2023-04-09T16:26:00.786Z,23.00
2023-04-09T16:31:03.203Z,24.00
2023-04-09T16:36:06.428Z,24.30
2023-04-09T16:41:08.660Z,22.80
2023-04-09T16:46:11.042Z,22.00
2023-04-09T16:51:13.394Z,22.60
2023-04-09T16:56:16.832Z,22.10
2023-04-09T17:01:19.372Z,21.60
2023-04-09T17:06:21.671Z,20.50
2023-04-09T17:11:23.872Z,19.80
2023-04-09T17:16:26.343Z,19.30
2023-04-09T17:21:28.880Z,20.00
2023-04-09T17:26:31.325Z,19.00
2023-04-09T17:31:33.654Z,17.00
2023-04-09T17:36:36.282Z,16.10
2023-04-09T17:41:38.685Z,15.40
2023-04-09T17:46:41.035Z,14.80
2023-04-09T17:51:43.543Z,14.30
2023-04-09T17:56:45.986Z,14.10
2023-04-09T18:01:48.483Z,13.80
2023-04-09T18:06:51.069Z,13.60
2023-04-09T18:11:56.587Z,13.30
2023-04-09T18:16:59.410Z,12.90
2023-04-09T18:22:01.638Z,12.70
2023-04-09T18:27:04.123Z,12.50
2023-04-09T18:32:06.610Z,12.40
2023-04-09T18:37:08.988Z,12.20
2023-04-09T18:42:11.196Z,12.00
2023-04-09T18:47:13.455Z,11.80
2023-04-09T18:52:15.933Z,11.70
2023-04-09T18:57:18.244Z,11.70
2023-04-09T19:02:20.971Z,11.70
2023-04-09T19:07:24.409Z,11.80
2023-04-09T19:12:29.847Z,11.80
2023-04-09T19:17:32.360Z,11.70
2023-04-09T19:22:34.565Z,11.80
2023-04-09T19:27:36.872Z,11.70
2023-04-09T19:32:39.905Z,11.70
2023-04-09T19:37:42.872Z,11.70
2023-04-09T19:42:45.169Z,11.70
2023-04-09T19:47:47.429Z,11.80
2023-04-09T19:52:49.720Z,11.60
2023-04-09T19:57:52.054Z,11.60
2023-04-09T20:02:55.365Z,11.60
2023-04-09T20:07:57.915Z,11.30
2023-04-09T20:13:00.144Z,11.10
2023-04-09T20:18:02.412Z,10.90
2023-04-09T20:23:05.166Z,10.90
2023-04-09T20:28:10.109Z,10.80
2023-04-09T20:33:12.465Z,10.60
2023-04-09T20:38:14.996Z,10.50
2023-04-09T20:43:17.176Z,10.40
2023-04-09T20:48:19.957Z,10.10
2023-04-09T20:53:24.506Z,10.00
2023-04-09T20:58:27.703Z,9.60
2023-04-09T21:03:34.010Z,9.50
2023-04-09T21:08:36.798Z,9.40
2023-04-09T21:13:53.222Z,9.40
2023-04-09T21:18:56.721Z,9.40
2023-04-09T21:23:59.198Z,9.30
2023-04-09T21:29:02.204Z,9.10
2023-04-09T21:34:05.485Z,9.10
2023-04-09T21:39:08.147Z,9.00
2023-04-09T21:44:10.413Z,8.80
2023-04-09T21:49:12.964Z,8.80
2023-04-09T21:54:15.202Z,8.60
2023-04-09T21:59:17.398Z,8.50
2023-04-09T22:04:19.641Z,8.40
2023-04-09T22:09:21.866Z,8.30
2023-04-09T22:14:24.138Z,8.20
2023-04-09T22:19:26.653Z,8.20
2023-04-09T22:24:30.511Z,8.20
2023-04-09T22:29:33.203Z,8.10
2023-04-09T22:34:35.409Z,8.00
2023-04-09T22:39:37.810Z,8.00
2023-04-09T22:44:40.241Z,8.00
2023-04-09T22:49:42.883Z,7.90
2023-04-09T22:54:45.115Z,7.90
2023-04-09T22:59:47.282Z,7.80
2023-04-09T23:04:57.733Z,7.80
2023-04-09T23:10:02.931Z,7.50
2023-04-09T23:15:05.487Z,7.50
2023-04-09T23:20:08.947Z,7.60
2023-04-09T23:25:11.260Z,7.60
2023-04-09T23:30:17.220Z,7.60
2023-04-09T23:35:20.821Z,7.50
2023-04-09T23:40:23.004Z,7.50
2023-04-09T23:45:25.218Z,7.50
2023-04-09T23:50:28.892Z,7.40
2023-04-09T23:55:33.428Z,7.40
